Time;durP1;ratioP1;P1;durP2;ratioP2;P2;SDS_P1;SDS_P2;PMS_P1;PMS_P2;Temp;Humidity;BMP_temperature;BMP_pressure;BME280_temperature;BME280_humidity;BME280_pressure;Samples;Min_cycle;Max_cycle;Signal;HPM_P1;HPM_P2
2022/07/20 00:02:04;;;;;;;8.63;4.13;;;;;;;;;;5111822;27;20070;-69
2022/07/20 00:04:30;;;;;;;9.88;4.20;;;;;;;;;;5110917;28;20105;-69
2022/07/20 00:06:57;;;;;;;8.23;4.15;;;;;;;;;;5110854;27;20056;-68
2022/07/20 00:12:08;;;;;;;9.73;4.53;;;;;;;;;;5109802;27;20584;-69
2022/07/20 00:14:35;;;;;;;5.63;3.85;;;;;;;;;;5109062;28;20176;-69
2022/07/20 00:17:03;;;;;;;7.00;3.88;;;;;;;;;;5109988;27;20052;-71
2022/07/20 00:19:29;;;;;;;10.38;4.70;;;;;;;;;;5109943;28;20062;-68
2022/07/20 00:21:56;;;;;;;7.90;4.30;;;;;;;;;;5110577;27;20051;-69
2022/07/20 00:24:22;;;;;;;6.70;4.40;;;;;;;;;;5100290;28;20056;-69
2022/07/20 00:26:48;;;;;;;6.63;4.40;;;;;;;;;;5109772;27;20052;-69
2022/07/20 00:29:15;;;;;;;7.68;4.57;;;;;;;;;;5110300;27;20052;-68
2022/07/20 00:31:41;;;;;;;5.72;4.47;;;;;;;;;;5108511;27;20052;-71
2022/07/20 00:34:07;;;;;;;9.63;4.40;;;;;;;;;;5110580;27;20062;-69
2022/07/20 00:36:34;;;;;;;8.85;3.90;;;;;;;;;;5111015;28;20052;-69
2022/07/20 00:39:00;;;;;;;7.53;4.55;;;;;;;;;;5112640;27;20077;-70
2022/07/20 00:41:26;;;;;;;5.65;4.35;;;;;;;;;;5109088;28;20044;-70
2022/07/20 00:44:01;;;;;;;7.63;4.47;;;;;;;;;;5109344;27;20048;-69
2022/07/20 00:46:28;;;;;;;8.25;4.22;;;;;;;;;;5108958;28;20127;-68
2022/07/20 00:48:55;;;;;;;9.95;3.95;;;;;;;;;;5106370;28;20060;-69
2022/07/20 00:51:21;;;;;;;9.07;4.97;;;;;;;;;;5110682;27;20068;-68
2022/07/20 00:53:48;;;;;;;8.32;4.53;;;;;;;;;;5111151;27;20056;-69
2022/07/20 00:56:15;;;;;;;10.60;4.20;;;;;;;;;;5108066;28;20059;-69
2022/07/20 00:58:41;;;;;;;10.52;4.95;;;;;;;;;;5110053;27;20504;-70
2022/07/20 01:01:08;;;;;;;9.20;4.30;;;;;;;;;;5114606;27;20056;-70
2022/07/20 01:03:34;;;;;;;9.02;4.45;;;;;;;;;;5112327;27;20059;-68
2022/07/20 01:06:01;;;;;;;7.10;4.60;;;;;;;;;;5109068;27;20431;-69
2022/07/20 01:08:28;;;;;;;7.57;4.55;;;;;;;;;;5109629;27;20044;-69
2022/07/20 01:10:55;;;;;;;12.73;4.82;;;;;;;;;;5109258;27;20586;-68
2022/07/20 01:13:21;;;;;;;8.80;4.35;;;;;;;;;;5110200;27;20055;-69
2022/07/20 01:15:47;;;;;;;8.20;3.95;;;;;;;;;;5106651;27;20052;-70
2022/07/20 01:18:14;;;;;;;9.65;4.40;;;;;;;;;;5106919;28;20525;-69
2022/07/20 01:20:44;;;;;;;5.75;4.63;;;;;;;;;;5095953;27;20056;-70
2022/07/20 01:23:10;;;;;;;11.02;4.60;;;;;;;;;;5113484;27;20048;-69
2022/07/20 01:25:36;;;;;;;5.90;4.28;;;;;;;;;;5111571;27;20058;-69
2022/07/20 01:28:06;;;;;;;5.80;3.95;;;;;;;;;;5111578;28;20048;-69
2022/07/20 01:30:32;;;;;;;9.20;4.35;;;;;;;;;;5097076;28;20062;-69
2022/07/20 01:32:58;;;;;;;5.47;3.97;;;;;;;;;;5110847;27;20142;-70
2022/07/20 01:35:25;;;;;;;5.85;3.90;;;;;;;;;;5109545;27;20515;-70
2022/07/20 01:37:51;;;;;;;9.60;3.92;;;;;;;;;;5110857;27;20054;-69
2022/07/20 01:40:18;;;;;;;6.57;4.43;;;;;;;;;;5099383;27;20136;-68
2022/07/20 01:42:44;;;;;;;5.82;3.92;;;;;;;;;;5104533;28;20044;-69
2022/07/20 01:45:10;;;;;;;7.38;4.43;;;;;;;;;;5107645;27;20622;-69
2022/07/20 01:47:37;;;;;;;9.63;4.38;;;;;;;;;;5107237;27;20044;-69
2022/07/20 01:50:03;;;;;;;6.82;4.00;;;;;;;;;;5108805;28;20143;-70
2022/07/20 01:52:32;;;;;;;4.80;3.50;;;;;;;;;;5107888;28;20474;-69
2022/07/20 01:54:58;;;;;;;11.70;4.47;;;;;;;;;;5107579;27;20048;-69
2022/07/20 01:57:25;;;;;;;7.53;3.92;;;;;;;;;;5107855;28;20141;-70
2022/07/20 01:59:51;;;;;;;5.63;3.97;;;;;;;;;;5109997;27;20135;-68
2022/07/20 02:02:17;;;;;;;7.90;3.97;;;;;;;;;;5108841;27;20127;-70
2022/07/20 02:04:44;;;;;;;7.47;3.72;;;;;;;;;;5103338;28;20385;-70
2022/07/20 02:07:10;;;;;;;8.77;4.05;;;;;;;;;;5095254;28;20088;-69
2022/07/20 02:09:36;;;;;;;6.35;3.90;;;;;;;;;;5107656;27;20091;-69
2022/07/20 02:12:03;;;;;;;6.82;4.13;;;;;;;;;;5112323;27;20048;-68
2022/07/20 02:14:29;;;;;;;8.75;4.28;;;;;;;;;;5114291;27;20052;-69
2022/07/20 02:16:55;;;;;;;5.80;4.10;;;;;;;;;;5115096;28;20079;-68
2022/07/20 02:19:22;;;;;;;8.52;4.00;;;;;;;;;;5113891;28;20513;-68
2022/07/20 02:21:48;;;;;;;9.43;4.95;;;;;;;;;;5112273;27;20052;-69
2022/07/20 02:24:15;;;;;;;6.85;4.10;;;;;;;;;;5113228;27;20586;-69
2022/07/20 02:26:41;;;;;;;7.68;4.20;;;;;;;;;;5112898;27;20139;-71
2022/07/20 02:29:07;;;;;;;12.98;4.38;;;;;;;;;;5113003;27;20463;-68
2022/07/20 02:31:34;;;;;;;6.95;4.40;;;;;;;;;;5112388;28;20063;-69
2022/07/20 02:34:00;;;;;;;8.02;4.35;;;;;;;;;;5112884;28;20048;-68
2022/07/20 02:36:26;;;;;;;7.88;4.22;;;;;;;;;;5112576;27;20109;-69
2022/07/20 02:38:53;;;;;;;12.15;4.50;;;;;;;;;;5113839;27;20056;-69
2022/07/20 02:41:20;;;;;;;8.13;4.30;;;;;;;;;;5112738;27;20055;-69
2022/07/20 02:43:47;;;;;;;7.03;4.30;;;;;;;;;;5112079;28;20083;-69
2022/07/20 02:46:13;;;;;;;9.65;4.00;;;;;;;;;;5112340;28;20507;-69
2022/07/20 02:48:39;;;;;;;6.55;4.05;;;;;;;;;;5108813;27;20056;-69
2022/07/20 02:51:06;;;;;;;12.00;4.70;;;;;;;;;;5111508;27;20151;-69
2022/07/20 02:53:32;;;;;;;8.05;4.40;;;;;;;;;;5111834;28;20514;-69
2022/07/20 02:55:58;;;;;;;9.73;4.47;;;;;;;;;;5099755;28;20056;-69
2022/07/20 02:58:25;;;;;;;7.97;4.47;;;;;;;;;;5113895;27;20052;-69
2022/07/20 03:00:51;;;;;;;8.18;4.25;;;;;;;;;;5111340;27;20052;-69
2022/07/20 03:03:17;;;;;;;8.15;4.10;;;;;;;;;;5113222;28;20056;-69
2022/07/20 03:05:44;;;;;;;5.47;4.05;;;;;;;;;;5111435;27;20056;-69
2022/07/20 03:08:10;;;;;;;6.70;4.47;;;;;;;;;;5111601;27;20423;-69
2022/07/20 03:10:37;;;;;;;7.78;4.53;;;;;;;;;;5111889;28;20052;-69
2022/07/20 03:13:03;;;;;;;9.93;4.70;;;;;;;;;;5112913;27;20139;-69
2022/07/20 03:15:29;;;;;;;9.55;4.32;;;;;;;;;;5112312;27;20140;-69
2022/07/20 03:17:56;;;;;;;7.78;4.65;;;;;;;;;;5091816;28;20056;-69
2022/07/20 03:20:24;;;;;;;9.63;4.53;;;;;;;;;;5109951;27;20044;-70
2022/07/20 03:22:50;;;;;;;12.52;5.20;;;;;;;;;;5111972;28;20578;-69
2022/07/20 03:25:17;;;;;;;5.25;4.57;;;;;;;;;;5112815;28;20094;-70
2022/07/20 03:27:43;;;;;;;9.93;5.13;;;;;;;;;;5111869;28;20139;-69
2022/07/20 03:30:10;;;;;;;9.85;5.20;;;;;;;;;;5112571;27;20086;-69
2022/07/20 03:32:37;;;;;;;11.23;5.05;;;;;;;;;;5112456;27;20060;-71
2022/07/20 03:35:03;;;;;;;9.27;4.90;;;;;;;;;;5102378;28;20529;-69
2022/07/20 03:37:30;;;;;;;10.90;5.50;;;;;;;;;;5107314;28;20529;-69
2022/07/20 03:39:57;;;;;;;9.85;5.43;;;;;;;;;;5111062;27;20056;-69
2022/07/20 03:42:23;;;;;;;9.75;5.80;;;;;;;;;;5111644;27;20058;-69
2022/07/20 03:44:49;;;;;;;13.95;6.93;;;;;;;;;;5110138;28;20059;-69
2022/07/20 03:47:16;;;;;;;14.05;6.90;;;;;;;;;;5109335;28;20135;-69
2022/07/20 03:49:42;;;;;;;13.60;6.75;;;;;;;;;;5108859;27;20060;-69
2022/07/20 03:52:09;;;;;;;10.30;6.05;;;;;;;;;;5109985;28;20091;-69
2022/07/20 03:54:37;;;;;;;9.75;6.05;;;;;;;;;;5113200;27;20044;-69
2022/07/20 03:57:04;;;;;;;12.25;6.78;;;;;;;;;;5110940;27;20052;-69
2022/07/20 03:59:30;;;;;;;11.73;6.35;;;;;;;;;;5111790;28;20084;-69
2022/07/20 04:01:56;;;;;;;13.57;7.10;;;;;;;;;;5101395;28;20135;-69
2022/07/20 04:04:23;;;;;;;11.18;7.32;;;;;;;;;;5105720;28;20051;-69
2022/07/20 04:06:49;;;;;;;13.43;7.03;;;;;;;;;;5110668;28;20052;-68
2022/07/20 04:09:43;;;;;;;12.70;6.82;;;;;;;;;;5110928;27;20595;-69
2022/07/20 04:12:03;;;;;;;8.57;6.97;;;;;;;;;;5095946;27;20056;-69
2022/07/20 04:14:29;;;;;;;11.13;7.68;;;;;;;;;;5110560;28;20048;-70
2022/07/20 04:16:55;;;;;;;13.63;7.78;;;;;;;;;;5105832;28;20052;-69
2022/07/20 04:19:21;;;;;;;12.88;8.77;;;;;;;;;;5104715;27;20529;-69
2022/07/20 04:21:48;;;;;;;16.52;8.07;;;;;;;;;;5110419;28;20052;-69
2022/07/20 04:24:14;;;;;;;18.25;8.60;;;;;;;;;;5107736;27;20105;-66
2022/07/20 04:26:40;;;;;;;11.40;8.00;;;;;;;;;;5112197;27;20124;-67
2022/07/20 04:29:07;;;;;;;13.73;9.00;;;;;;;;;;5111091;27;20580;-67
2022/07/20 04:31:33;;;;;;;13.52;8.75;;;;;;;;;;5111038;28;20056;-67
2022/07/20 04:33:59;;;;;;;17.40;9.57;;;;;;;;;;5106130;27;20051;-66
2022/07/20 04:36:26;;;;;;;18.55;11.05;;;;;;;;;;5110060;27;20499;-65
2022/07/20 04:38:52;;;;;;;26.42;12.05;;;;;;;;;;5110985;28;20076;-65
2022/07/20 04:41:20;;;;;;;19.38;11.43;;;;;;;;;;5109378;27;20055;-65
2022/07/20 04:43:46;;;;;;;19.48;12.25;;;;;;;;;;5108781;27;20197;-66
2022/07/20 04:46:12;;;;;;;24.05;13.18;;;;;;;;;;5110158;27;20048;-65
2022/07/20 04:48:39;;;;;;;20.95;13.45;;;;;;;;;;5107448;27;20148;-65
2022/07/20 04:51:05;;;;;;;24.42;13.90;;;;;;;;;;5109591;27;20603;-65
2022/07/20 04:53:32;;;;;;;20.77;14.13;;;;;;;;;;5109816;28;20078;-65
2022/07/20 04:55:58;;;;;;;25.20;15.30;;;;;;;;;;5103102;28;20067;-66
2022/07/20 04:58:24;;;;;;;22.98;16.17;;;;;;;;;;5101187;28;20058;-65
2022/07/20 05:00:55;;;;;;;20.10;14.93;;;;;;;;;;5108374;27;20505;-65
2022/07/20 05:03:22;;;;;;;23.83;16.60;;;;;;;;;;5108864;27;20127;-65
2022/07/20 05:05:48;;;;;;;23.42;16.92;;;;;;;;;;5110178;27;20044;-65
2022/07/20 05:08:15;;;;;;;24.55;17.17;;;;;;;;;;5109266;27;20605;-65
2022/07/20 05:10:41;;;;;;;32.03;17.77;;;;;;;;;;5109874;28;20052;-66
2022/07/20 05:13:07;;;;;;;26.40;19.13;;;;;;;;;;5110334;27;20055;-65
2022/07/20 05:15:34;;;;;;;29.17;19.10;;;;;;;;;;5109709;27;20426;-65
2022/07/20 05:18:00;;;;;;;27.00;19.08;;;;;;;;;;5106962;27;20062;-65
2022/07/20 05:20:26;;;;;;;30.30;18.77;;;;;;;;;;5107437;28;20048;-66
2022/07/20 05:22:53;;;;;;;29.25;19.88;;;;;;;;;;5109976;27;20520;-65
2022/07/20 05:25:19;;;;;;;33.20;21.08;;;;;;;;;;5107352;27;20048;-65
2022/07/20 05:27:54;;;;;;;29.52;21.02;;;;;;;;;;5110095;27;20132;-65
2022/07/20 05:30:20;;;;;;;32.10;20.85;;;;;;;;;;5104584;27;22385;-65
2022/07/20 05:32:46;;;;;;;28.85;20.20;;;;;;;;;;5108606;28;20052;-65
2022/07/20 05:35:13;;;;;;;31.02;20.90;;;;;;;;;;5109441;27;20052;-65
2022/07/20 05:37:39;;;;;;;28.55;20.95;;;;;;;;;;5109700;27;20056;-66
2022/07/20 05:40:07;;;;;;;28.00;21.10;;;;;;;;;;5106182;27;20059;-65
2022/07/20 05:42:33;;;;;;;34.03;22.20;;;;;;;;;;5104549;27;20910;-66
2022/07/20 05:44:59;;;;;;;31.88;21.27;;;;;;;;;;5105858;27;20072;-65
2022/07/20 05:47:26;;;;;;;33.03;22.30;;;;;;;;;;5109851;28;20139;-65
2022/07/20 05:49:52;;;;;;;33.30;22.90;;;;;;;;;;5101335;28;20076;-66
2022/07/20 05:52:18;;;;;;;34.00;25.02;;;;;;;;;;5109542;28;20147;-66
2022/07/20 05:54:45;;;;;;;26.52;22.38;;;;;;;;;;5110519;27;20055;-66
2022/07/20 05:57:11;;;;;;;27.88;22.70;;;;;;;;;;5108464;27;20138;-65
2022/07/20 05:59:38;;;;;;;29.77;22.73;;;;;;;;;;5102553;27;20537;-66
2022/07/20 06:02:05;;;;;;;35.50;23.20;;;;;;;;;;5109492;27;20056;-66
2022/07/20 06:04:32;;;;;;;33.63;24.27;;;;;;;;;;5109362;27;20056;-67
2022/07/20 06:06:58;;;;;;;31.23;22.45;;;;;;;;;;5109848;28;20692;-66
2022/07/20 06:09:24;;;;;;;34.53;24.27;;;;;;;;;;5107728;28;20526;-62
2022/07/20 06:11:51;;;;;;;32.05;23.23;;;;;;;;;;5110583;27;20052;-64
2022/07/20 06:14:18;;;;;;;28.60;22.95;;;;;;;;;;5109814;27;20048;-63
2022/07/20 06:16:44;;;;;;;32.80;22.73;;;;;;;;;;5109917;27;20083;-63
2022/07/20 06:19:11;;;;;;;35.00;23.08;;;;;;;;;;5107352;27;20528;-65
2022/07/20 06:21:37;;;;;;;31.08;21.83;;;;;;;;;;5107569;28;20056;-64
2022/07/20 06:24:04;;;;;;;33.85;23.15;;;;;;;;;;5108961;28;20549;-65
2022/07/20 06:26:30;;;;;;;33.47;23.20;;;;;;;;;;5109872;27;20060;-64
2022/07/20 06:28:56;;;;;;;31.95;22.13;;;;;;;;;;5107653;27;20047;-66
2022/07/20 06:31:24;;;;;;;27.05;20.67;;;;;;;;;;5109198;28;20058;-65
2022/07/20 06:34:11;;;;;;;33.08;21.85;;;;;;;;;;5108128;27;20059;-67
2022/07/20 06:36:37;;;;;;;24.90;20.40;;;;;;;;;;5108332;27;20055;-68
2022/07/20 06:39:03;;;;;;;31.08;21.23;;;;;;;;;;5108276;28;20172;-65
2022/07/20 06:41:30;;;;;;;29.20;18.55;;;;;;;;;;5108331;27;20117;-64
2022/07/20 06:43:56;;;;;;;30.30;18.02;;;;;;;;;;5109599;27;20048;-63
2022/07/20 06:46:22;;;;;;;24.58;17.98;;;;;;;;;;5110586;27;20055;-67
2022/07/20 06:48:49;;;;;;;20.15;17.30;;;;;;;;;;5107920;27;20056;-63
2022/07/20 06:51:16;;;;;;;23.05;17.50;;;;;;;;;;5109231;27;20048;-66
2022/07/20 06:53:42;;;;;;;28.88;17.80;;;;;;;;;;5091314;27;20496;-64
2022/07/20 06:56:09;;;;;;;24.38;18.40;;;;;;;;;;5109468;27;20058;-66
2022/07/20 06:58:35;;;;;;;27.05;20.48;;;;;;;;;;5111442;27;20048;-68
2022/07/20 07:01:02;;;;;;;20.50;17.40;;;;;;;;;;5113141;27;20071;-68
2022/07/20 07:03:28;;;;;;;26.33;19.65;;;;;;;;;;5111407;27;20082;-68
2022/07/20 07:06:01;;;;;;;24.02;17.90;;;;;;;;;;5112758;27;20107;-70
2022/07/20 07:08:27;;;;;;;27.30;19.65;;;;;;;;;;5108412;27;20472;-70
2022/07/20 07:10:54;;;;;;;31.42;21.25;;;;;;;;;;5112340;27;20135;-69
2022/07/20 07:13:20;;;;;;;29.02;20.10;;;;;;;;;;5100468;27;20484;-68
2022/07/20 07:15:46;;;;;;;28.75;21.58;;;;;;;;;;5094557;28;20118;-67
2022/07/20 07:18:13;;;;;;;25.02;20.83;;;;;;;;;;5108302;27;20054;-66
2022/07/20 07:20:39;;;;;;;31.48;19.98;;;;;;;;;;5110730;28;20060;-66
2022/07/20 07:23:05;;;;;;;31.83;19.65;;;;;;;;;;5110929;27;20056;-64
2022/07/20 07:25:32;;;;;;;24.92;17.20;;;;;;;;;;5111971;27;20055;-65
2022/07/20 07:27:58;;;;;;;20.38;15.55;;;;;;;;;;5112587;27;20059;-65
2022/07/20 07:30:24;;;;;;;24.50;15.57;;;;;;;;;;5111693;27;20599;-64
2022/07/20 07:32:50;;;;;;;21.17;14.25;;;;;;;;;;5112408;28;20143;-68
2022/07/20 07:35:17;;;;;;;18.65;12.80;;;;;;;;;;5111031;27;20052;-67
2022/07/20 07:37:43;;;;;;;18.60;14.05;;;;;;;;;;5112216;27;20048;-68
2022/07/20 07:40:10;;;;;;;17.17;12.45;;;;;;;;;;5112978;27;20059;-68
2022/07/20 07:42:36;;;;;;;16.88;13.25;;;;;;;;;;5110112;28;20147;-68
2022/07/20 07:45:06;;;;;;;18.33;12.70;;;;;;;;;;5112410;28;20158;-68
2022/07/20 07:47:34;;;;;;;17.60;12.10;;;;;;;;;;5109560;28;20056;-69
2022/07/20 07:50:00;;;;;;;18.42;13.05;;;;;;;;;;5109064;27;20078;-70
2022/07/20 07:52:26;;;;;;;20.15;13.02;;;;;;;;;;5112540;27;20128;-69
2022/07/20 07:54:53;;;;;;;17.35;12.43;;;;;;;;;;5112680;27;20514;-69
2022/07/20 07:57:19;;;;;;;20.10;12.25;;;;;;;;;;5111582;27;20054;-66
2022/07/20 07:59:45;;;;;;;18.23;12.05;;;;;;;;;;5111120;27;20142;-68
2022/07/20 08:02:12;;;;;;;20.20;11.93;;;;;;;;;;5109194;27;20056;-67
2022/07/20 08:04:38;;;;;;;21.20;12.75;;;;;;;;;;5111921;27;20094;-67
2022/07/20 08:07:05;;;;;;;17.50;11.32;;;;;;;;;;5110628;27;20472;-68
2022/07/20 08:09:31;;;;;;;16.58;12.23;;;;;;;;;;5110020;28;20139;-67
2022/07/20 08:11:57;;;;;;;21.70;12.30;;;;;;;;;;5112171;27;20143;-68
2022/07/20 08:14:24;;;;;;;17.90;11.50;;;;;;;;;;5112227;27;20368;-67
2022/07/20 08:16:50;;;;;;;21.15;11.48;;;;;;;;;;5109910;27;20052;-68
2022/07/20 08:19:16;;;;;;;26.83;12.15;;;;;;;;;;5108743;27;20101;-67
2022/07/20 08:21:43;;;;;;;23.00;12.55;;;;;;;;;;5091429;28;20500;-65
2022/07/20 08:24:09;;;;;;;19.80;12.07;;;;;;;;;;5106564;28;20055;-65
2022/07/20 08:26:35;;;;;;;17.85;11.90;;;;;;;;;;5109657;27;20517;-66
2022/07/20 08:29:02;;;;;;;19.25;12.63;;;;;;;;;;5109411;27;20147;-67
2022/07/20 08:31:37;;;;;;;19.67;11.27;;;;;;;;;;5111089;27;20052;-66
2022/07/20 08:34:03;;;;;;;17.65;11.68;;;;;;;;;;5111737;27;20062;-65
2022/07/20 08:36:30;;;;;;;18.52;11.38;;;;;;;;;;5111415;27;20468;-66
2022/07/20 08:38:56;;;;;;;15.23;11.75;;;;;;;;;;5094003;27;20143;-67
2022/07/20 08:41:23;;;;;;;20.38;11.73;;;;;;;;;;5108979;28;20059;-67
2022/07/20 08:43:49;;;;;;;15.80;11.23;;;;;;;;;;5110460;27;20517;-67
2022/07/20 08:46:17;;;;;;;18.80;11.30;;;;;;;;;;5111226;27;20063;-66
2022/07/20 08:48:43;;;;;;;21.40;10.63;;;;;;;;;;5107910;27;20063;-67
2022/07/20 08:51:10;;;;;;;21.95;10.80;;;;;;;;;;5108946;27;20614;-68
2022/07/20 08:53:36;;;;;;;17.65;10.23;;;;;;;;;;5106307;27;20553;-66
2022/07/20 08:56:14;;;;;;;17.20;10.45;;;;;;;;;;5110364;28;20059;-65
2022/07/20 08:58:41;;;;;;;18.73;10.25;;;;;;;;;;5108812;27;20056;-68
2022/07/20 09:01:12;;;;;;;17.90;10.50;;;;;;;;;;5106910;27;20146;-68
2022/07/20 09:03:41;;;;;;;13.30;9.50;;;;;;;;;;5109747;28;20147;-69
2022/07/20 09:06:07;;;;;;;16.35;10.43;;;;;;;;;;5096144;27;20455;-68
2022/07/20 09:08:34;;;;;;;14.32;9.82;;;;;;;;;;5092285;28;20187;-68
2022/07/20 09:11:02;;;;;;;12.95;9.23;;;;;;;;;;5101962;28;20476;-70
2022/07/20 09:13:30;;;;;;;11.55;9.40;;;;;;;;;;5109650;28;20118;-68
2022/07/20 09:15:56;;;;;;;15.05;9.25;;;;;;;;;;5110263;27;20142;-69
2022/07/20 09:18:30;;;;;;;19.25;9.23;;;;;;;;;;5107830;27;20602;-67
2022/07/20 09:20:56;;;;;;;13.52;8.55;;;;;;;;;;5109796;28;20139;-69
2022/07/20 09:23:23;;;;;;;17.73;9.57;;;;;;;;;;5109533;28;20545;-68
2022/07/20 09:25:52;;;;;;;18.50;9.25;;;;;;;;;;5110663;27;20110;-67
2022/07/20 09:28:19;;;;;;;14.93;8.80;;;;;;;;;;5107696;28;20575;-68
2022/07/20 09:30:53;;;;;;;17.98;9.43;;;;;;;;;;5110197;28;20431;-67
2022/07/20 09:33:26;;;;;;;17.20;8.93;;;;;;;;;;5109770;28;20059;-67
2022/07/20 09:35:53;;;;;;;15.10;8.88;;;;;;;;;;5109176;27;20531;-68
2022/07/20 09:38:19;;;;;;;20.42;9.25;;;;;;;;;;5109492;27;20082;-69
2022/07/20 09:40:46;;;;;;;17.25;8.80;;;;;;;;;;5102940;28;20422;-69
2022/07/20 09:43:29;;;;;;;10.63;8.00;;;;;;;;;;5110408;27;20087;-67
2022/07/20 09:46:07;;;;;;;11.93;8.45;;;;;;;;;;5104304;27;20551;-69
2022/07/20 09:48:38;;;;;;;12.43;8.20;;;;;;;;;;5103971;28;20409;-68
2022/07/20 09:51:15;;;;;;;15.15;8.80;;;;;;;;;;5110202;28;20044;-67
2022/07/20 09:53:41;;;;;;;26.90;8.88;;;;;;;;;;5106056;27;20072;-67
2022/07/20 09:56:08;;;;;;;9.60;8.05;;;;;;;;;;5110573;27;20078;-67
2022/07/20 09:58:34;;;;;;;12.77;8.00;;;;;;;;;;5108765;28;20130;-68
2022/07/20 10:01:01;;;;;;;13.63;9.15;;;;;;;;;;5106367;28;20048;-64
2022/07/20 10:03:32;;;;;;;14.45;8.25;;;;;;;;;;5103196;28;20673;-68
2022/07/20 10:05:58;;;;;;;9.93;7.35;;;;;;;;;;5110225;27;20052;-66
2022/07/20 10:08:25;;;;;;;9.38;7.47;;;;;;;;;;5110176;27;20443;-67
2022/07/20 10:10:51;;;;;;;14.57;7.60;;;;;;;;;;5107900;28;20158;-68
2022/07/20 10:13:18;;;;;;;10.23;6.85;;;;;;;;;;5108682;28;20055;-67
2022/07/20 10:15:55;;;;;;;15.38;6.82;;;;;;;;;;5109061;27;20176;-68
2022/07/20 10:18:22;;;;;;;11.10;6.57;;;;;;;;;;5106806;28;20052;-70
2022/07/20 10:20:49;;;;;;;10.50;4.82;;;;;;;;;;5112490;27;20055;-69
2022/07/20 10:23:15;;;;;;;12.90;4.93;;;;;;;;;;5129005;27;20139;-69
2022/07/20 10:25:42;;;;;;;8.40;4.93;;;;;;;;;;5124341;27;20048;-68
2022/07/20 10:28:23;;;;;;;5.28;4.43;;;;;;;;;;5106455;27;20052;-68
2022/07/20 10:30:54;;;;;;;14.75;5.05;;;;;;;;;;5090493;28;20059;-68
2022/07/20 10:33:21;;;;;;;11.25;4.93;;;;;;;;;;5093232;28;20056;-68
2022/07/20 10:35:48;;;;;;;5.80;4.88;;;;;;;;;;5112921;28;20099;-68
2022/07/20 10:38:18;;;;;;;11.05;4.63;;;;;;;;;;5112751;28;20052;-68
2022/07/20 10:44:08;;;;;;;8.55;5.00;;;;;;;;;;5111887;28;20087;-67
2022/07/20 10:46:35;;;;;;;11.10;4.88;;;;;;;;;;5106894;28;20527;-67
2022/07/20 10:49:02;;;;;;;7.38;4.43;;;;;;;;;;5109700;27;20498;-67
2022/07/20 10:51:28;;;;;;;10.18;4.85;;;;;;;;;;5110334;27;20491;-68
2022/07/20 10:53:54;;;;;;;5.90;4.75;;;;;;;;;;5099988;27;20131;-68
2022/07/20 10:56:28;;;;;;;6.88;4.28;;;;;;;;;;5092663;28;20057;-68
2022/07/20 10:58:58;;;;;;;6.73;3.73;;;;;;;;;;5108148;28;20139;-68
2022/07/20 11:01:25;;;;;;;8.85;4.63;;;;;;;;;;5110844;27;20134;-67
2022/07/20 11:03:51;;;;;;;6.68;4.35;;;;;;;;;;5112960;27;20141;-67
2022/07/20 11:06:19;;;;;;;7.60;4.65;;;;;;;;;;5108634;27;20058;-67
2022/07/20 11:08:50;;;;;;;7.40;4.30;;;;;;;;;;5105108;28;20052;-67
2022/07/20 11:11:18;;;;;;;7.28;4.68;;;;;;;;;;5105724;27;20054;-66
2022/07/20 11:13:48;;;;;;;6.82;4.78;;;;;;;;;;5119189;27;20063;-65
2022/07/20 11:16:19;;;;;;;5.57;4.63;;;;;;;;;;5114798;27;20056;-66
2022/07/20 11:18:46;;;;;;;6.10;4.45;;;;;;;;;;5109626;27;20135;-66
2022/07/20 11:21:12;;;;;;;4.70;3.85;;;;;;;;;;5115088;27;20051;-66
2022/07/20 11:23:40;;;;;;;5.55;4.00;;;;;;;;;;5109182;27;20082;-67
2022/07/20 11:26:07;;;;;;;6.50;3.45;;;;;;;;;;5110097;28;20102;-67
2022/07/20 11:28:35;;;;;;;5.50;3.10;;;;;;;;;;5112044;27;20130;-65
2022/07/20 11:31:02;;;;;;;4.95;3.72;;;;;;;;;;5115859;27;20055;-67
2022/07/20 11:33:28;;;;;;;4.60;3.47;;;;;;;;;;5122591;27;20058;-66
2022/07/20 11:35:56;;;;;;;6.47;4.10;;;;;;;;;;5111981;27;20058;-68
2022/07/20 11:38:23;;;;;;;5.85;4.50;;;;;;;;;;5111131;27;20059;-67
2022/07/20 11:40:57;;;;;;;5.15;3.72;;;;;;;;;;5109634;27;20105;-67
2022/07/20 11:43:23;;;;;;;6.25;4.22;;;;;;;;;;5103930;28;20426;-68
2022/07/20 11:45:50;;;;;;;5.15;3.80;;;;;;;;;;5125693;27;20134;-67
2022/07/20 11:48:21;;;;;;;5.82;4.30;;;;;;;;;;5107935;27;20048;-66
2022/07/20 11:51:07;;;;;;;5.00;4.22;;;;;;;;;;5104634;27;20059;-67
2022/07/20 11:53:39;;;;;;;9.10;4.53;;;;;;;;;;5109873;27;20048;-68
2022/07/20 11:56:12;;;;;;;7.75;4.63;;;;;;;;;;5109998;27;20058;-68
2022/07/20 11:58:38;;;;;;;7.97;4.20;;;;;;;;;;5102724;28;20156;-67
2022/07/20 12:01:06;;;;;;;7.25;3.90;;;;;;;;;;5109777;27;20126;-69
2022/07/20 12:03:34;;;;;;;4.53;4.13;;;;;;;;;;5109864;27;20098;-65
2022/07/20 12:06:06;;;;;;;5.70;3.92;;;;;;;;;;5110702;27;20534;-67
2022/07/20 12:08:32;;;;;;;4.88;3.80;;;;;;;;;;5101078;28;20056;-66
2022/07/20 12:10:59;;;;;;;6.70;3.92;;;;;;;;;;5108932;27;20090;-68
2022/07/20 12:13:26;;;;;;;7.47;3.83;;;;;;;;;;5106434;27;20556;-65
2022/07/20 12:15:57;;;;;;;7.30;4.20;;;;;;;;;;5111789;28;20522;-67
2022/07/20 12:18:33;;;;;;;6.03;4.25;;;;;;;;;;5110868;27;20135;-67
2022/07/20 12:21:06;;;;;;;8.75;4.03;;;;;;;;;;5108088;28;20518;-66
2022/07/20 12:23:33;;;;;;;8.50;3.92;;;;;;;;;;5110703;27;20503;-66
2022/07/20 12:26:00;;;;;;;8.63;4.22;;;;;;;;;;5111380;27;20059;-64
2022/07/20 12:28:31;;;;;;;7.38;4.28;;;;;;;;;;5101208;27;20053;-66
2022/07/20 12:31:19;;;;;;;5.25;4.38;;;;;;;;;;5107655;28;20048;-67
2022/07/20 12:34:06;;;;;;;6.82;4.30;;;;;;;;;;5110280;27;20522;-67
2022/07/20 12:36:40;;;;;;;6.32;4.45;;;;;;;;;;5108650;28;20165;-66
2022/07/20 12:39:08;;;;;;;6.57;4.38;;;;;;;;;;5125446;27;20060;-66
2022/07/20 12:41:35;;;;;;;8.25;4.03;;;;;;;;;;5111866;27;20114;-65
2022/07/20 12:44:23;;;;;;;5.65;3.97;;;;;;;;;;5112145;27;20056;-65
2022/07/20 12:46:50;;;;;;;9.05;4.20;;;;;;;;;;5110905;27;20054;-64
2022/07/20 12:49:24;;;;;;;4.97;4.20;;;;;;;;;;5103365;27;20055;-66
2022/07/20 12:51:51;;;;;;;5.53;4.07;;;;;;;;;;5103066;27;20135;-65
2022/07/20 12:54:18;;;;;;;6.45;4.03;;;;;;;;;;5105342;27;20052;-67
2022/07/20 12:57:04;;;;;;;5.28;3.70;;;;;;;;;;5109435;28;20095;-66
2022/07/20 12:59:31;;;;;;;5.40;3.25;;;;;;;;;;5111490;27;20066;-68
2022/07/20 13:01:57;;;;;;;6.45;3.80;;;;;;;;;;5110701;27;20541;-66
2022/07/20 13:04:24;;;;;;;6.32;3.75;;;;;;;;;;5106843;27;20063;-67
2022/07/20 13:06:52;;;;;;;4.57;3.80;;;;;;;;;;5111589;27;20052;-68
2022/07/20 13:09:21;;;;;;;4.82;4.07;;;;;;;;;;5109065;27;20062;-69
2022/07/20 13:11:48;;;;;;;5.53;3.85;;;;;;;;;;5109518;27;20143;-67
2022/07/20 13:14:15;;;;;;;7.85;4.38;;;;;;;;;;5107040;27;20054;-67
2022/07/20 13:16:42;;;;;;;6.22;3.95;;;;;;;;;;5099337;27;20062;-67
2022/07/20 13:19:08;;;;;;;5.43;4.00;;;;;;;;;;5106161;27;20147;-67
2022/07/20 13:21:35;;;;;;;4.85;3.80;;;;;;;;;;5098277;28;20517;-69
2022/07/20 13:24:01;;;;;;;4.90;3.95;;;;;;;;;;5104676;28;20598;-66
2022/07/20 13:26:28;;;;;;;5.82;3.90;;;;;;;;;;5108677;27;20059;-68
2022/07/20 13:28:54;;;;;;;5.38;4.00;;;;;;;;;;5109462;27;20052;-67
2022/07/20 13:31:21;;;;;;;6.35;4.47;;;;;;;;;;5110319;27;20059;-68
2022/07/20 13:34:07;;;;;;;7.70;4.50;;;;;;;;;;5108243;28;20060;-68
2022/07/20 13:36:34;;;;;;;10.27;4.78;;;;;;;;;;5109585;27;20090;-69
2022/07/20 13:39:00;;;;;;;6.60;4.75;;;;;;;;;;5109057;27;20595;-66
2022/07/20 13:41:27;;;;;;;8.18;4.60;;;;;;;;;;5103624;27;20123;-66
2022/07/20 13:43:53;;;;;;;6.78;5.07;;;;;;;;;;5109208;27;20105;-65
2022/07/20 13:46:20;;;;;;;10.02;4.97;;;;;;;;;;5117438;27;20415;-66
2022/07/20 13:48:46;;;;;;;8.90;5.50;;;;;;;;;;5102853;27;20092;-67
2022/07/20 13:51:13;;;;;;;5.82;5.10;;;;;;;;;;5108808;28;20056;-68
2022/07/20 13:53:59;;;;;;;9.27;5.75;;;;;;;;;;5107895;27;20056;-66
2022/07/20 13:56:30;;;;;;;9.07;5.15;;;;;;;;;;5101738;27;20142;-66
2022/07/20 13:58:56;;;;;;;8.85;5.22;;;;;;;;;;5109047;27;20052;-68
2022/07/20 14:01:22;;;;;;;7.18;5.03;;;;;;;;;;5123217;27;20048;-67
2022/07/20 14:03:49;;;;;;;7.57;5.03;;;;;;;;;;5109105;27;20067;-64
2022/07/20 14:06:15;;;;;;;7.00;5.13;;;;;;;;;;5111498;27;20056;-66
2022/07/20 14:08:42;;;;;;;11.30;5.45;;;;;;;;;;5111284;27;20130;-65
2022/07/20 14:11:10;;;;;;;7.70;5.05;;;;;;;;;;5109338;27;20056;-64
2022/07/20 14:13:36;;;;;;;10.02;5.57;;;;;;;;;;5112954;27;20143;-64
2022/07/20 14:16:03;;;;;;;11.45;5.93;;;;;;;;;;5112952;27;20523;-65
2022/07/20 14:18:29;;;;;;;10.25;5.53;;;;;;;;;;5108232;28;20058;-66
2022/07/20 14:20:56;;;;;;;9.95;5.75;;;;;;;;;;5110624;28;20063;-66
2022/07/20 14:23:42;;;;;;;8.40;5.15;;;;;;;;;;5112607;27;20062;-64
2022/07/20 14:26:10;;;;;;;9.88;5.30;;;;;;;;;;5109044;27;20519;-65
2022/07/20 14:28:36;;;;;;;12.38;5.90;;;;;;;;;;5113983;27;20068;-65
2022/07/20 14:31:03;;;;;;;10.55;5.60;;;;;;;;;;5108085;27;20052;-64
2022/07/20 14:33:29;;;;;;;8.13;5.20;;;;;;;;;;5112167;27;20060;-66
2022/07/20 14:35:56;;;;;;;8.20;5.38;;;;;;;;;;5111319;27;20052;-67
2022/07/20 14:38:22;;;;;;;8.95;5.82;;;;;;;;;;5104518;27;20520;-65
2022/07/20 14:40:48;;;;;;;6.38;4.93;;;;;;;;;;5115819;27;20515;-65
2022/07/20 14:43:15;;;;;;;12.27;5.60;;;;;;;;;;5112611;27;20054;-65